sensor_id;sensor_type;location;lat;lon;timestamp;P1;durP1;ratioP1;P2;durP2;ratioP2
53293;SDS011;39181;53.440;5.644;2022-12-18T00:00:28;101.72;;;31.30;;
53293;SDS011;39181;53.440;5.644;2022-12-18T00:02:55;97.05;;;32.25;;
53293;SDS011;39181;53.440;5.644;2022-12-18T00:05:20;106.57;;;34.38;;
53293;SDS011;39181;53.440;5.644;2022-12-18T00:07:46;100.20;;;33.03;;
53293;SDS011;39181;53.440;5.644;2022-12-18T00:10:11;104.70;;;31.88;;
53293;SDS011;39181;53.440;5.644;2022-12-18T00:12:37;115.40;;;35.10;;
53293;SDS011;39181;53.440;5.644;2022-12-18T00:15:03;106.82;;;32.08;;
53293;SDS011;39181;53.440;5.644;2022-12-18T00:17:29;86.93;;;32.05;;
53293;SDS011;39181;53.440;5.644;2022-12-18T00:19:54;90.40;;;31.00;;
53293;SDS011;39181;53.440;5.644;2022-12-18T00:22:20;93.30;;;33.38;;
53293;SDS011;39181;53.440;5.644;2022-12-18T00:24:45;81.03;;;31.38;;
53293;SDS011;39181;53.440;5.644;2022-12-18T00:27:11;89.07;;;33.80;;
53293;SDS011;39181;53.440;5.644;2022-12-18T00:29:36;92.70;;;31.35;;
53293;SDS011;39181;53.440;5.644;2022-12-18T00:32:04;97.05;;;34.00;;
53293;SDS011;39181;53.440;5.644;2022-12-18T00:34:30;93.00;;;32.35;;
53293;SDS011;39181;53.440;5.644;2022-12-18T00:36:56;101.38;;;35.03;;
53293;SDS011;39181;53.440;5.644;2022-12-18T00:39:21;91.38;;;31.20;;
53293;SDS011;39181;53.440;5.644;2022-12-18T00:41:47;93.55;;;31.98;;
53293;SDS011;39181;53.440;5.644;2022-12-18T00:44:31;90.07;;;32.80;;
53293;SDS011;39181;53.440;5.644;2022-12-18T00:46:56;101.88;;;34.47;;
53293;SDS011;39181;53.440;5.644;2022-12-18T00:49:22;85.60;;;29.70;;
53293;SDS011;39181;53.440;5.644;2022-12-18T00:51:47;91.70;;;32.22;;
53293;SDS011;39181;53.440;5.644;2022-12-18T00:54:13;93.80;;;30.55;;
53293;SDS011;39181;53.440;5.644;2022-12-18T00:56:39;100.38;;;33.17;;
53293;SDS011;39181;53.440;5.644;2022-12-18T00:59:05;92.95;;;31.52;;
53293;SDS011;39181;53.440;5.644;2022-12-18T01:01:31;100.20;;;34.50;;
53293;SDS011;39181;53.440;5.644;2022-12-18T01:03:57;98.60;;;34.08;;
53293;SDS011;39181;53.440;5.644;2022-12-18T01:06:24;82.22;;;29.60;;
53293;SDS011;39181;53.440;5.644;2022-12-18T01:08:49;83.63;;;30.15;;
53293;SDS011;39181;53.440;5.644;2022-12-18T01:11:16;80.40;;;29.45;;
53293;SDS011;39181;53.440;5.644;2022-12-18T01:13:43;87.68;;;31.48;;
53293;SDS011;39181;53.440;5.644;2022-12-18T01:16:10;93.78;;;32.55;;
53293;SDS011;39181;53.440;5.644;2022-12-18T01:18:37;97.25;;;34.63;;
53293;SDS011;39181;53.440;5.644;2022-12-18T01:21:07;102.72;;;35.10;;
53293;SDS011;39181;53.440;5.644;2022-12-18T01:23:34;103.28;;;34.00;;
53293;SDS011;39181;53.440;5.644;2022-12-18T01:26:09;96.43;;;34.45;;
53293;SDS011;39181;53.440;5.644;2022-12-18T01:28:37;98.10;;;34.15;;
53293;SDS011;39181;53.440;5.644;2022-12-18T01:33:49;99.95;;;34.60;;
53293;SDS011;39181;53.440;5.644;2022-12-18T01:36:20;95.30;;;32.88;;
53293;SDS011;39181;53.440;5.644;2022-12-18T01:38:47;105.13;;;35.60;;
53293;SDS011;39181;53.440;5.644;2022-12-18T01:41:14;89.38;;;31.52;;
53293;SDS011;39181;53.440;5.644;2022-12-18T01:43:43;100.53;;;33.08;;
53293;SDS011;39181;53.440;5.644;2022-12-18T01:46:09;109.35;;;36.55;;
53293;SDS011;39181;53.440;5.644;2022-12-18T01:48:35;92.47;;;32.38;;
53293;SDS011;39181;53.440;5.644;2022-12-18T01:51:01;98.82;;;35.03;;
53293;SDS011;39181;53.440;5.644;2022-12-18T01:53:27;98.53;;;35.60;;
53293;SDS011;39181;53.440;5.644;2022-12-18T01:55:54;93.22;;;33.22;;
53293;SDS011;39181;53.440;5.644;2022-12-18T01:59:04;92.90;;;31.95;;
53293;SDS011;39181;53.440;5.644;2022-12-18T02:01:20;86.28;;;31.98;;
53293;SDS011;39181;53.440;5.644;2022-12-18T02:03:47;90.32;;;32.88;;
53293;SDS011;39181;53.440;5.644;2022-12-18T02:06:15;88.28;;;32.83;;
53293;SDS011;39181;53.440;5.644;2022-12-18T02:08:47;91.50;;;30.73;;
53293;SDS011;39181;53.440;5.644;2022-12-18T02:16:56;102.30;;;33.65;;
53293;SDS011;39181;53.440;5.644;2022-12-18T02:19:37;83.55;;;30.63;;
53293;SDS011;39181;53.440;5.644;2022-12-18T02:22:27;80.78;;;29.48;;
53293;SDS011;39181;53.440;5.644;2022-12-18T02:25:10;81.93;;;30.27;;
53293;SDS011;39181;53.440;5.644;2022-12-18T02:27:44;85.65;;;29.27;;
53293;SDS011;39181;53.440;5.644;2022-12-18T02:30:12;83.50;;;31.02;;
53293;SDS011;39181;53.440;5.644;2022-12-18T02:32:39;88.43;;;31.60;;
53293;SDS011;39181;53.440;5.644;2022-12-18T02:35:08;93.53;;;30.80;;
53293;SDS011;39181;53.440;5.644;2022-12-18T02:37:37;71.78;;;30.13;;
53293;SDS011;39181;53.440;5.644;2022-12-18T02:40:05;86.43;;;28.63;;
53293;SDS011;39181;53.440;5.644;2022-12-18T02:42:32;77.53;;;29.17;;
53293;SDS011;39181;53.440;5.644;2022-12-18T02:44:58;85.43;;;30.48;;
53293;SDS011;39181;53.440;5.644;2022-12-18T02:47:24;70.80;;;27.75;;
53293;SDS011;39181;53.440;5.644;2022-12-18T02:52:39;80.63;;;29.50;;
53293;SDS011;39181;53.440;5.644;2022-12-18T03:00:58;91.25;;;30.70;;
53293;SDS011;39181;53.440;5.644;2022-12-18T03:08:42;60.22;;;22.55;;
53293;SDS011;39181;53.440;5.644;2022-12-18T03:11:10;74.65;;;26.58;;
53293;SDS011;39181;53.440;5.644;2022-12-18T03:13:42;80.32;;;27.45;;
53293;SDS011;39181;53.440;5.644;2022-12-18T03:16:15;75.28;;;26.83;;
53293;SDS011;39181;53.440;5.644;2022-12-18T03:18:52;79.32;;;28.60;;
53293;SDS011;39181;53.440;5.644;2022-12-18T03:21:24;67.85;;;27.77;;
53293;SDS011;39181;53.440;5.644;2022-12-18T03:23:53;69.00;;;24.40;;
53293;SDS011;39181;53.440;5.644;2022-12-18T03:26:22;85.00;;;28.73;;
53293;SDS011;39181;53.440;5.644;2022-12-18T03:28:54;73.82;;;27.55;;
53293;SDS011;39181;53.440;5.644;2022-12-18T03:31:24;74.75;;;27.05;;
53293;SDS011;39181;53.440;5.644;2022-12-18T03:33:54;79.07;;;27.17;;
53293;SDS011;39181;53.440;5.644;2022-12-18T03:36:22;73.65;;;27.75;;
53293;SDS011;39181;53.440;5.644;2022-12-18T03:38:48;78.53;;;26.73;;
53293;SDS011;39181;53.440;5.644;2022-12-18T03:41:33;80.18;;;30.27;;
53293;SDS011;39181;53.440;5.644;2022-12-18T03:46:46;75.03;;;25.67;;
53293;SDS011;39181;53.440;5.644;2022-12-18T03:49:25;76.30;;;29.17;;
53293;SDS011;39181;53.440;5.644;2022-12-18T03:54:27;73.00;;;27.00;;
53293;SDS011;39181;53.440;5.644;2022-12-18T03:56:56;80.25;;;27.70;;
53293;SDS011;39181;53.440;5.644;2022-12-18T03:59:26;74.60;;;23.40;;
53293;SDS011;39181;53.440;5.644;2022-12-18T04:01:54;81.93;;;27.75;;
53293;SDS011;39181;53.440;5.644;2022-12-18T04:04:22;68.30;;;25.50;;
53293;SDS011;39181;53.440;5.644;2022-12-18T04:06:50;72.43;;;25.85;;
53293;SDS011;39181;53.440;5.644;2022-12-18T04:09:17;62.55;;;23.88;;
53293;SDS011;39181;53.440;5.644;2022-12-18T04:11:44;78.03;;;28.52;;
53293;SDS011;39181;53.440;5.644;2022-12-18T04:14:11;72.28;;;26.05;;
53293;SDS011;39181;53.440;5.644;2022-12-18T04:16:36;80.80;;;27.48;;
53293;SDS011;39181;53.440;5.644;2022-12-18T04:19:02;76.72;;;28.33;;
53293;SDS011;39181;53.440;5.644;2022-12-18T04:21:28;73.70;;;26.50;;
53293;SDS011;39181;53.440;5.644;2022-12-18T04:23:54;79.25;;;26.58;;
53293;SDS011;39181;53.440;5.644;2022-12-18T04:26:19;79.63;;;27.95;;
53293;SDS011;39181;53.440;5.644;2022-12-18T04:28:45;74.70;;;26.35;;
53293;SDS011;39181;53.440;5.644;2022-12-18T04:31:11;79.95;;;26.38;;
53293;SDS011;39181;53.440;5.644;2022-12-18T04:33:37;74.60;;;24.80;;
53293;SDS011;39181;53.440;5.644;2022-12-18T04:36:03;79.03;;;27.33;;
53293;SDS011;39181;53.440;5.644;2022-12-18T04:38:28;86.93;;;27.30;;
53293;SDS011;39181;53.440;5.644;2022-12-18T04:40:54;76.45;;;27.50;;
53293;SDS011;39181;53.440;5.644;2022-12-18T04:43:20;87.38;;;27.90;;
53293;SDS011;39181;53.440;5.644;2022-12-18T04:45:45;78.93;;;27.48;;
53293;SDS011;39181;53.440;5.644;2022-12-18T04:48:11;88.38;;;27.52;;
53293;SDS011;39181;53.440;5.644;2022-12-18T04:50:37;75.00;;;25.17;;
53293;SDS011;39181;53.440;5.644;2022-12-18T04:53:03;78.43;;;27.27;;
53293;SDS011;39181;53.440;5.644;2022-12-18T04:55:28;76.00;;;26.63;;
53293;SDS011;39181;53.440;5.644;2022-12-18T04:57:54;75.00;;;26.55;;
53293;SDS011;39181;53.440;5.644;2022-12-18T05:00:19;82.53;;;25.85;;
53293;SDS011;39181;53.440;5.644;2022-12-18T05:02:45;79.28;;;27.48;;
53293;SDS011;39181;53.440;5.644;2022-12-18T05:05:11;77.00;;;28.23;;
53293;SDS011;39181;53.440;5.644;2022-12-18T05:07:37;75.93;;;26.65;;
53293;SDS011;39181;53.440;5.644;2022-12-18T05:10:02;80.45;;;27.95;;
53293;SDS011;39181;53.440;5.644;2022-12-18T05:12:31;83.80;;;28.90;;
53293;SDS011;39181;53.440;5.644;2022-12-18T05:14:57;76.05;;;25.42;;
53293;SDS011;39181;53.440;5.644;2022-12-18T05:17:22;68.88;;;24.42;;
53293;SDS011;39181;53.440;5.644;2022-12-18T05:19:48;85.25;;;26.92;;
53293;SDS011;39181;53.440;5.644;2022-12-18T05:22:14;77.68;;;26.83;;
53293;SDS011;39181;53.440;5.644;2022-12-18T05:24:39;71.00;;;24.33;;
53293;SDS011;39181;53.440;5.644;2022-12-18T05:27:05;79.60;;;24.73;;
53293;SDS011;39181;53.440;5.644;2022-12-18T05:29:30;82.65;;;27.50;;
53293;SDS011;39181;53.440;5.644;2022-12-18T05:31:56;82.03;;;27.35;;
53293;SDS011;39181;53.440;5.644;2022-12-18T05:34:21;89.28;;;29.10;;
53293;SDS011;39181;53.440;5.644;2022-12-18T05:36:47;80.00;;;28.15;;
53293;SDS011;39181;53.440;5.644;2022-12-18T05:39:12;78.53;;;26.80;;
53293;SDS011;39181;53.440;5.644;2022-12-18T05:41:38;89.78;;;28.70;;
53293;SDS011;39181;53.440;5.644;2022-12-18T05:44:03;79.03;;;24.35;;
53293;SDS011;39181;53.440;5.644;2022-12-18T05:46:29;86.75;;;28.48;;
53293;SDS011;39181;53.440;5.644;2022-12-18T05:48:58;86.25;;;27.70;;
53293;SDS011;39181;53.440;5.644;2022-12-18T05:51:25;77.43;;;27.35;;
53293;SDS011;39181;53.440;5.644;2022-12-18T05:53:50;77.57;;;27.67;;
53293;SDS011;39181;53.440;5.644;2022-12-18T05:56:17;85.60;;;28.38;;
53293;SDS011;39181;53.440;5.644;2022-12-18T05:58:45;78.25;;;26.67;;
53293;SDS011;39181;53.440;5.644;2022-12-18T06:01:19;78.70;;;26.77;;
53293;SDS011;39181;53.440;5.644;2022-12-18T06:03:47;89.28;;;27.65;;
53293;SDS011;39181;53.440;5.644;2022-12-18T06:06:15;76.85;;;26.45;;
53293;SDS011;39181;53.440;5.644;2022-12-18T06:08:43;80.95;;;26.45;;
53293;SDS011;39181;53.440;5.644;2022-12-18T06:11:09;82.82;;;28.63;;
53293;SDS011;39181;53.440;5.644;2022-12-18T06:13:34;78.53;;;27.70;;
53293;SDS011;39181;53.440;5.644;2022-12-18T06:16:06;79.10;;;26.70;;
53293;SDS011;39181;53.440;5.644;2022-12-18T06:18:33;77.68;;;27.45;;
53293;SDS011;39181;53.440;5.644;2022-12-18T06:20:59;75.00;;;25.13;;
53293;SDS011;39181;53.440;5.644;2022-12-18T06:23:25;75.60;;;26.30;;
53293;SDS011;39181;53.440;5.644;2022-12-18T06:25:51;82.85;;;26.88;;
53293;SDS011;39181;53.440;5.644;2022-12-18T06:28:16;83.32;;;27.60;;
53293;SDS011;39181;53.440;5.644;2022-12-18T06:30:43;78.35;;;26.17;;
53293;SDS011;39181;53.440;5.644;2022-12-18T06:33:09;73.03;;;25.42;;
53293;SDS011;39181;53.440;5.644;2022-12-18T06:35:35;82.88;;;26.45;;
53293;SDS011;39181;53.440;5.644;2022-12-18T06:38:01;69.72;;;25.95;;
53293;SDS011;39181;53.440;5.644;2022-12-18T06:40:27;73.47;;;25.80;;
53293;SDS011;39181;53.440;5.644;2022-12-18T06:42:53;80.35;;;26.42;;
53293;SDS011;39181;53.440;5.644;2022-12-18T06:45:18;72.57;;;24.77;;
53293;SDS011;39181;53.440;5.644;2022-12-18T06:47:44;70.25;;;25.27;;
53293;SDS011;39181;53.440;5.644;2022-12-18T06:50:09;71.75;;;25.13;;
53293;SDS011;39181;53.440;5.644;2022-12-18T06:52:35;63.38;;;23.58;;
53293;SDS011;39181;53.440;5.644;2022-12-18T06:55:01;70.75;;;25.42;;
53293;SDS011;39181;53.440;5.644;2022-12-18T06:57:27;61.38;;;23.65;;
53293;SDS011;39181;53.440;5.644;2022-12-18T06:59:53;65.32;;;23.90;;
53293;SDS011;39181;53.440;5.644;2022-12-18T07:02:18;72.30;;;23.75;;
53293;SDS011;39181;53.440;5.644;2022-12-18T07:04:44;68.78;;;25.75;;
53293;SDS011;39181;53.440;5.644;2022-12-18T07:07:10;68.80;;;24.38;;
53293;SDS011;39181;53.440;5.644;2022-12-18T07:09:35;68.88;;;25.10;;
53293;SDS011;39181;53.440;5.644;2022-12-18T07:12:01;61.95;;;23.63;;
53293;SDS011;39181;53.440;5.644;2022-12-18T07:14:27;60.35;;;23.95;;
53293;SDS011;39181;53.440;5.644;2022-12-18T07:16:52;68.63;;;24.60;;
53293;SDS011;39181;53.440;5.644;2022-12-18T07:19:18;66.47;;;23.50;;
53293;SDS011;39181;53.440;5.644;2022-12-18T07:21:43;58.65;;;21.73;;
53293;SDS011;39181;53.440;5.644;2022-12-18T07:24:09;58.28;;;21.30;;
53293;SDS011;39181;53.440;5.644;2022-12-18T07:26:34;58.85;;;21.45;;
53293;SDS011;39181;53.440;5.644;2022-12-18T07:29:00;57.67;;;21.83;;
53293;SDS011;39181;53.440;5.644;2022-12-18T07:31:26;61.00;;;22.10;;
53293;SDS011;39181;53.440;5.644;2022-12-18T07:33:52;53.00;;;20.75;;
53293;SDS011;39181;53.440;5.644;2022-12-18T07:36:18;58.25;;;21.23;;
53293;SDS011;39181;53.440;5.644;2022-12-18T07:38:46;56.28;;;21.40;;
53293;SDS011;39181;53.440;5.644;2022-12-18T07:41:13;61.10;;;22.48;;
53293;SDS011;39181;53.440;5.644;2022-12-18T07:43:40;140.73;;;62.70;;
53293;SDS011;39181;53.440;5.644;2022-12-18T07:46:07;105.63;;;48.78;;
53293;SDS011;39181;53.440;5.644;2022-12-18T07:48:34;83.55;;;36.35;;
53293;SDS011;39181;53.440;5.644;2022-12-18T07:51:00;71.38;;;31.67;;
53293;SDS011;39181;53.440;5.644;2022-12-18T07:53:27;69.43;;;26.67;;
53293;SDS011;39181;53.440;5.644;2022-12-18T07:55:57;60.95;;;24.77;;
53293;SDS011;39181;53.440;5.644;2022-12-18T07:58:23;56.33;;;24.17;;
53293;SDS011;39181;53.440;5.644;2022-12-18T08:00:49;52.78;;;21.42;;
53293;SDS011;39181;53.440;5.644;2022-12-18T08:03:15;56.88;;;22.27;;
53293;SDS011;39181;53.440;5.644;2022-12-18T08:05:40;51.15;;;20.33;;
53293;SDS011;39181;53.440;5.644;2022-12-18T08:08:06;51.10;;;20.17;;
53293;SDS011;39181;53.440;5.644;2022-12-18T08:10:32;52.88;;;20.30;;
53293;SDS011;39181;53.440;5.644;2022-12-18T08:12:57;48.78;;;19.77;;
53293;SDS011;39181;53.440;5.644;2022-12-18T08:15:23;46.05;;;19.45;;
53293;SDS011;39181;53.440;5.644;2022-12-18T08:17:48;48.05;;;20.58;;
53293;SDS011;39181;53.440;5.644;2022-12-18T08:20:14;44.80;;;18.42;;
53293;SDS011;39181;53.440;5.644;2022-12-18T08:22:43;50.28;;;18.65;;
53293;SDS011;39181;53.440;5.644;2022-12-18T08:25:09;45.10;;;17.38;;
53293;SDS011;39181;53.440;5.644;2022-12-18T08:27:35;41.10;;;18.08;;
53293;SDS011;39181;53.440;5.644;2022-12-18T08:30:01;43.90;;;17.65;;
53293;SDS011;39181;53.440;5.644;2022-12-18T08:32:28;41.65;;;17.42;;
53293;SDS011;39181;53.440;5.644;2022-12-18T08:34:54;45.58;;;18.45;;
53293;SDS011;39181;53.440;5.644;2022-12-18T08:37:19;40.85;;;17.27;;
53293;SDS011;39181;53.440;5.644;2022-12-18T08:39:45;39.17;;;16.65;;
53293;SDS011;39181;53.440;5.644;2022-12-18T08:42:10;39.70;;;17.48;;
53293;SDS011;39181;53.440;5.644;2022-12-18T08:44:55;42.78;;;16.95;;
53293;SDS011;39181;53.440;5.644;2022-12-18T08:47:20;39.08;;;16.70;;
53293;SDS011;39181;53.440;5.644;2022-12-18T08:49:46;38.90;;;15.85;;
53293;SDS011;39181;53.440;5.644;2022-12-18T08:52:11;41.83;;;16.42;;
53293;SDS011;39181;53.440;5.644;2022-12-18T08:54:39;43.60;;;16.80;;
53293;SDS011;39181;53.440;5.644;2022-12-18T08:57:05;40.15;;;17.38;;
53293;SDS011;39181;53.440;5.644;2022-12-18T08:59:31;43.80;;;17.80;;
53293;SDS011;39181;53.440;5.644;2022-12-18T09:01:57;39.78;;;17.25;;
53293;SDS011;39181;53.440;5.644;2022-12-18T09:04:22;38.28;;;16.30;;
53293;SDS011;39181;53.440;5.644;2022-12-18T09:06:48;35.28;;;16.13;;
53293;SDS011;39181;53.440;5.644;2022-12-18T09:09:13;36.00;;;15.57;;
53293;SDS011;39181;53.440;5.644;2022-12-18T09:11:39;37.78;;;16.40;;
53293;SDS011;39181;53.440;5.644;2022-12-18T09:14:05;36.28;;;16.35;;
53293;SDS011;39181;53.440;5.644;2022-12-18T09:16:31;41.38;;;16.92;;
53293;SDS011;39181;53.440;5.644;2022-12-18T09:18:57;37.22;;;16.05;;
53293;SDS011;39181;53.440;5.644;2022-12-18T09:21:25;38.83;;;17.02;;
53293;SDS011;39181;53.440;5.644;2022-12-18T09:23:53;42.13;;;16.58;;
53293;SDS011;39181;53.440;5.644;2022-12-18T09:26:20;38.38;;;17.73;;
53293;SDS011;39181;53.440;5.644;2022-12-18T09:28:46;44.00;;;16.35;;
53293;SDS011;39181;53.440;5.644;2022-12-18T09:31:12;38.58;;;15.40;;
53293;SDS011;39181;53.440;5.644;2022-12-18T09:33:40;33.28;;;15.27;;
53293;SDS011;39181;53.440;5.644;2022-12-18T09:36:07;35.08;;;15.60;;
53293;SDS011;39181;53.440;5.644;2022-12-18T09:38:34;35.22;;;15.93;;
53293;SDS011;39181;53.440;5.644;2022-12-18T09:41:03;35.40;;;15.70;;
53293;SDS011;39181;53.440;5.644;2022-12-18T09:43:35;38.63;;;15.52;;
53293;SDS011;39181;53.440;5.644;2022-12-18T09:46:14;36.40;;;13.95;;
53293;SDS011;39181;53.440;5.644;2022-12-18T09:48:44;36.88;;;16.45;;
53293;SDS011;39181;53.440;5.644;2022-12-18T09:53:44;35.50;;;15.95;;
53293;SDS011;39181;53.440;5.644;2022-12-18T09:56:20;29.95;;;13.75;;
53293;SDS011;39181;53.440;5.644;2022-12-18T09:58:57;32.22;;;14.48;;
53293;SDS011;39181;53.440;5.644;2022-12-18T10:01:24;32.90;;;14.85;;
53293;SDS011;39181;53.440;5.644;2022-12-18T10:03:52;33.03;;;14.55;;
53293;SDS011;39181;53.440;5.644;2022-12-18T10:09:30;34.65;;;16.73;;
53293;SDS011;39181;53.440;5.644;2022-12-18T10:19:48;29.73;;;14.20;;
53293;SDS011;39181;53.440;5.644;2022-12-18T10:22:48;35.35;;;14.32;;
53293;SDS011;39181;53.440;5.644;2022-12-18T10:25:44;23.77;;;11.15;;
53293;SDS011;39181;53.440;5.644;2022-12-18T10:28:21;32.67;;;13.60;;
53293;SDS011;39181;53.440;5.644;2022-12-18T10:30:48;29.58;;;12.43;;
53293;SDS011;39181;53.440;5.644;2022-12-18T10:33:15;25.25;;;11.93;;
53293;SDS011;39181;53.440;5.644;2022-12-18T10:35:50;29.35;;;11.77;;
53293;SDS011;39181;53.440;5.644;2022-12-18T10:43:51;23.98;;;11.90;;
53293;SDS011;39181;53.440;5.644;2022-12-18T10:54:17;26.23;;;11.93;;
53293;SDS011;39181;53.440;5.644;2022-12-18T10:56:46;24.27;;;10.80;;
53293;SDS011;39181;53.440;5.644;2022-12-18T10:59:16;21.70;;;11.45;;
53293;SDS011;39181;53.440;5.644;2022-12-18T11:01:52;23.75;;;11.15;;
53293;SDS011;39181;53.440;5.644;2022-12-18T11:04:25;26.17;;;11.80;;
53293;SDS011;39181;53.440;5.644;2022-12-18T11:07:06;20.67;;;10.18;;
53293;SDS011;39181;53.440;5.644;2022-12-18T11:09:33;22.02;;;11.13;;
53293;SDS011;39181;53.440;5.644;2022-12-18T11:12:02;24.55;;;10.68;;
53293;SDS011;39181;53.440;5.644;2022-12-18T11:19:59;18.77;;;9.65;;
53293;SDS011;39181;53.440;5.644;2022-12-18T11:22:28;19.92;;;9.65;;
53293;SDS011;39181;53.440;5.644;2022-12-18T11:24:59;16.88;;;9.05;;
53293;SDS011;39181;53.440;5.644;2022-12-18T11:27:53;17.92;;;8.60;;
53293;SDS011;39181;53.440;5.644;2022-12-18T11:30:29;15.65;;;8.70;;
53293;SDS011;39181;53.440;5.644;2022-12-18T11:33:09;18.00;;;8.85;;
53293;SDS011;39181;53.440;5.644;2022-12-18T11:35:53;16.10;;;8.05;;
53293;SDS011;39181;53.440;5.644;2022-12-18T11:38:29;15.10;;;8.50;;
53293;SDS011;39181;53.440;5.644;2022-12-18T11:46:24;18.35;;;8.35;;
53293;SDS011;39181;53.440;5.644;2022-12-18T11:49:04;15.82;;;7.72;;
53293;SDS011;39181;53.440;5.644;2022-12-18T11:51:38;15.88;;;7.72;;
53293;SDS011;39181;53.440;5.644;2022-12-18T11:54:11;14.23;;;7.13;;
53293;SDS011;39181;53.440;5.644;2022-12-18T11:56:49;16.15;;;7.95;;
53293;SDS011;39181;53.440;5.644;2022-12-18T12:08:26;12.75;;;6.68;;
53293;SDS011;39181;53.440;5.644;2022-12-18T12:11:20;12.75;;;7.22;;
53293;SDS011;39181;53.440;5.644;2022-12-18T12:16:57;13.38;;;7.47;;
53293;SDS011;39181;53.440;5.644;2022-12-18T12:19:50;16.40;;;7.47;;
53293;SDS011;39181;53.440;5.644;2022-12-18T12:25:25;16.45;;;8.02;;
53293;SDS011;39181;53.440;5.644;2022-12-18T12:40:54;17.48;;;8.25;;
53293;SDS011;39181;53.440;5.644;2022-12-18T12:43:27;15.98;;;7.82;;
53293;SDS011;39181;53.440;5.644;2022-12-18T12:46:11;15.13;;;7.53;;
53293;SDS011;39181;53.440;5.644;2022-12-18T12:48:49;18.75;;;8.23;;
53293;SDS011;39181;53.440;5.644;2022-12-18T12:53:51;15.82;;;8.18;;
53293;SDS011;39181;53.440;5.644;2022-12-18T12:56:19;16.27;;;7.75;;
53293;SDS011;39181;53.440;5.644;2022-12-18T13:01:40;19.23;;;10.05;;
53293;SDS011;39181;53.440;5.644;2022-12-18T13:07:06;15.73;;;10.13;;
53293;SDS011;39181;53.440;5.644;2022-12-18T13:12:51;16.90;;;8.32;;
53293;SDS011;39181;53.440;5.644;2022-12-18T13:25:59;12.00;;;5.75;;
53293;SDS011;39181;53.440;5.644;2022-12-18T13:31:12;9.48;;;5.45;;
53293;SDS011;39181;53.440;5.644;2022-12-18T13:33:43;9.38;;;5.40;;
53293;SDS011;39181;53.440;5.644;2022-12-18T13:38:47;12.65;;;6.45;;
53293;SDS011;39181;53.440;5.644;2022-12-18T13:47:01;12.20;;;6.68;;
53293;SDS011;39181;53.440;5.644;2022-12-18T13:52:00;9.73;;;5.50;;
53293;SDS011;39181;53.440;5.644;2022-12-18T13:54:34;10.23;;;6.03;;
53293;SDS011;39181;53.440;5.644;2022-12-18T13:57:01;11.00;;;6.53;;
53293;SDS011;39181;53.440;5.644;2022-12-18T13:59:33;13.88;;;6.78;;
53293;SDS011;39181;53.440;5.644;2022-12-18T14:02:05;15.95;;;7.07;;
53293;SDS011;39181;53.440;5.644;2022-12-18T14:04:53;10.60;;;5.30;;
53293;SDS011;39181;53.440;5.644;2022-12-18T14:07:20;9.95;;;5.68;;
53293;SDS011;39181;53.440;5.644;2022-12-18T14:09:50;11.27;;;5.18;;
53293;SDS011;39181;53.440;5.644;2022-12-18T14:12:21;10.13;;;5.68;;
53293;SDS011;39181;53.440;5.644;2022-12-18T14:15:09;16.48;;;7.47;;
53293;SDS011;39181;53.440;5.644;2022-12-18T14:20:40;10.38;;;5.13;;
53293;SDS011;39181;53.440;5.644;2022-12-18T14:25:58;10.98;;;4.80;;
53293;SDS011;39181;53.440;5.644;2022-12-18T14:28:24;9.38;;;5.45;;
53293;SDS011;39181;53.440;5.644;2022-12-18T14:30:51;7.75;;;4.57;;
53293;SDS011;39181;53.440;5.644;2022-12-18T14:33:18;8.05;;;5.13;;
53293;SDS011;39181;53.440;5.644;2022-12-18T14:35:53;7.38;;;4.30;;
53293;SDS011;39181;53.440;5.644;2022-12-18T14:41:18;9.32;;;4.97;;
53293;SDS011;39181;53.440;5.644;2022-12-18T14:43:43;8.07;;;4.30;;
53293;SDS011;39181;53.440;5.644;2022-12-18T14:48:51;7.70;;;4.57;;
53293;SDS011;39181;53.440;5.644;2022-12-18T14:51:19;9.02;;;4.80;;
53293;SDS011;39181;53.440;5.644;2022-12-18T14:53:52;8.18;;;4.82;;
53293;SDS011;39181;53.440;5.644;2022-12-18T14:56:21;6.87;;;3.63;;
53293;SDS011;39181;53.440;5.644;2022-12-18T15:04:24;8.75;;;4.40;;
53293;SDS011;39181;53.440;5.644;2022-12-18T15:09:36;8.95;;;4.50;;
53293;SDS011;39181;53.440;5.644;2022-12-18T15:12:03;8.10;;;4.25;;
53293;SDS011;39181;53.440;5.644;2022-12-18T15:14:30;8.35;;;4.35;;
53293;SDS011;39181;53.440;5.644;2022-12-18T15:17:05;7.45;;;3.67;;
53293;SDS011;39181;53.440;5.644;2022-12-18T15:19:40;9.73;;;4.43;;
53293;SDS011;39181;53.440;5.644;2022-12-18T15:22:24;7.47;;;4.38;;
53293;SDS011;39181;53.440;5.644;2022-12-18T15:24:55;9.95;;;4.57;;
53293;SDS011;39181;53.440;5.644;2022-12-18T15:27:32;8.43;;;4.18;;
53293;SDS011;39181;53.440;5.644;2022-12-18T15:32:35;9.18;;;4.95;;
53293;SDS011;39181;53.440;5.644;2022-12-18T15:35:24;7.97;;;4.28;;
53293;SDS011;39181;53.440;5.644;2022-12-18T15:37:49;7.88;;;4.13;;
53293;SDS011;39181;53.440;5.644;2022-12-18T15:40:21;9.35;;;4.63;;
53293;SDS011;39181;53.440;5.644;2022-12-18T15:42:48;9.13;;;5.20;;
53293;SDS011;39181;53.440;5.644;2022-12-18T15:45:36;7.68;;;4.13;;
53293;SDS011;39181;53.440;5.644;2022-12-18T15:48:01;9.00;;;4.80;;
53293;SDS011;39181;53.440;5.644;2022-12-18T15:50:27;8.48;;;4.25;;
53293;SDS011;39181;53.440;5.644;2022-12-18T15:52:53;10.43;;;4.80;;
53293;SDS011;39181;53.440;5.644;2022-12-18T15:55:21;8.60;;;4.72;;
53293;SDS011;39181;53.440;5.644;2022-12-18T15:58:07;10.43;;;4.88;;
53293;SDS011;39181;53.440;5.644;2022-12-18T16:00:34;11.30;;;4.75;;
53293;SDS011;39181;53.440;5.644;2022-12-18T16:03:02;10.10;;;4.35;;
53293;SDS011;39181;53.440;5.644;2022-12-18T16:05:29;8.88;;;4.40;;
53293;SDS011;39181;53.440;5.644;2022-12-18T16:07:55;8.35;;;4.63;;
53293;SDS011;39181;53.440;5.644;2022-12-18T16:10:21;11.15;;;5.28;;
53293;SDS011;39181;53.440;5.644;2022-12-18T16:12:47;7.40;;;3.97;;
53293;SDS011;39181;53.440;5.644;2022-12-18T16:15:13;10.98;;;4.85;;
53293;SDS011;39181;53.440;5.644;2022-12-18T16:17:41;8.45;;;5.13;;
53293;SDS011;39181;53.440;5.644;2022-12-18T16:22:41;8.27;;;4.80;;
53293;SDS011;39181;53.440;5.644;2022-12-18T16:25:26;10.02;;;4.90;;
53293;SDS011;39181;53.440;5.644;2022-12-18T16:27:53;9.00;;;5.35;;
53293;SDS011;39181;53.440;5.644;2022-12-18T16:30:29;8.93;;;5.00;;
53293;SDS011;39181;53.440;5.644;2022-12-18T16:32:59;11.60;;;5.55;;
53293;SDS011;39181;53.440;5.644;2022-12-18T16:35:25;22.85;;;8.73;;
53293;SDS011;39181;53.440;5.644;2022-12-18T16:37:51;9.15;;;5.47;;
53293;SDS011;39181;53.440;5.644;2022-12-18T16:40:17;9.77;;;5.65;;
53293;SDS011;39181;53.440;5.644;2022-12-18T16:42:44;11.45;;;6.13;;
53293;SDS011;39181;53.440;5.644;2022-12-18T16:45:11;12.43;;;6.40;;
53293;SDS011;39181;53.440;5.644;2022-12-18T16:47:39;13.23;;;6.38;;
53293;SDS011;39181;53.440;5.644;2022-12-18T16:50:05;9.05;;;5.32;;
53293;SDS011;39181;53.440;5.644;2022-12-18T16:52:32;9.73;;;5.20;;
53293;SDS011;39181;53.440;5.644;2022-12-18T16:54:57;12.02;;;5.90;;
53293;SDS011;39181;53.440;5.644;2022-12-18T16:57:23;10.45;;;5.93;;
53293;SDS011;39181;53.440;5.644;2022-12-18T16:59:49;11.98;;;5.50;;
53293;SDS011;39181;53.440;5.644;2022-12-18T17:02:18;10.07;;;5.70;;
53293;SDS011;39181;53.440;5.644;2022-12-18T17:04:46;12.82;;;5.35;;
53293;SDS011;39181;53.440;5.644;2022-12-18T17:07:12;11.35;;;5.07;;
53293;SDS011;39181;53.440;5.644;2022-12-18T17:09:38;7.50;;;4.57;;